sensor_id;sensor_type;location;lat;lon;timestamp;P1;durP1;ratioP1;P2;durP2;ratioP2
67747;SDS011;54543;50.712;6.070;2023-04-03T00:00:02;2.88;;;1.80;;
67747;SDS011;54543;50.712;6.070;2023-04-03T00:02:29;3.10;;;1.98;;
67747;SDS011;54543;50.712;6.070;2023-04-03T00:04:54;3.38;;;1.67;;
67747;SDS011;54543;50.712;6.070;2023-04-03T00:07:20;1.73;;;1.30;;
67747;SDS011;54543;50.712;6.070;2023-04-03T00:09:45;2.45;;;1.55;;
67747;SDS011;54543;50.712;6.070;2023-04-03T00:12:11;4.22;;;1.83;;
67747;SDS011;54543;50.712;6.070;2023-04-03T00:14:37;1.88;;;1.42;;
67747;SDS011;54543;50.712;6.070;2023-04-03T00:17:02;2.30;;;1.60;;
67747;SDS011;54543;50.712;6.070;2023-04-03T00:19:28;1.98;;;1.48;;
67747;SDS011;54543;50.712;6.070;2023-04-03T00:21:53;2.05;;;1.63;;
67747;SDS011;54543;50.712;6.070;2023-04-03T00:24:19;1.63;;;1.30;;
67747;SDS011;54543;50.712;6.070;2023-04-03T00:26:44;2.85;;;1.70;;
67747;SDS011;54543;50.712;6.070;2023-04-03T00:29:10;3.35;;;2.10;;
67747;SDS011;54543;50.712;6.070;2023-04-03T00:31:36;1.85;;;1.65;;
67747;SDS011;54543;50.712;6.070;2023-04-03T00:34:01;1.85;;;1.48;;
67747;SDS011;54543;50.712;6.070;2023-04-03T00:36:27;2.55;;;1.52;;
67747;SDS011;54543;50.712;6.070;2023-04-03T00:38:52;1.70;;;1.23;;
67747;SDS011;54543;50.712;6.070;2023-04-03T00:41:18;2.88;;;1.80;;
67747;SDS011;54543;50.712;6.070;2023-04-03T00:43:43;2.13;;;1.40;;
67747;SDS011;54543;50.712;6.070;2023-04-03T00:46:10;2.65;;;1.35;;
67747;SDS011;54543;50.712;6.070;2023-04-03T00:48:43;2.30;;;1.50;;
67747;SDS011;54543;50.712;6.070;2023-04-03T00:51:14;1.58;;;1.20;;
67747;SDS011;54543;50.712;6.070;2023-04-03T00:53:55;1.48;;;1.23;;
67747;SDS011;54543;50.712;6.070;2023-04-03T00:56:25;1.83;;;1.40;;
67747;SDS011;54543;50.712;6.070;2023-04-03T00:58:54;2.13;;;1.52;;
67747;SDS011;54543;50.712;6.070;2023-04-03T01:01:25;4.07;;;2.40;;
67747;SDS011;54543;50.712;6.070;2023-04-03T01:03:52;1.65;;;1.42;;
67747;SDS011;54543;50.712;6.070;2023-04-03T01:06:20;1.60;;;1.42;;
67747;SDS011;54543;50.712;6.070;2023-04-03T01:08:49;1.20;;;1.10;;
67747;SDS011;54543;50.712;6.070;2023-04-03T01:11:15;2.25;;;1.30;;
67747;SDS011;54543;50.712;6.070;2023-04-03T01:13:41;2.15;;;1.42;;
67747;SDS011;54543;50.712;6.070;2023-04-03T01:16:07;1.65;;;1.33;;
67747;SDS011;54543;50.712;6.070;2023-04-03T01:18:33;2.15;;;1.33;;
67747;SDS011;54543;50.712;6.070;2023-04-03T01:26:49;3.40;;;1.48;;
67747;SDS011;54543;50.712;6.070;2023-04-03T01:29:15;1.77;;;1.08;;
67747;SDS011;54543;50.712;6.070;2023-04-03T01:31:51;1.42;;;1.15;;
67747;SDS011;54543;50.712;6.070;2023-04-03T01:34:24;1.75;;;1.40;;
67747;SDS011;54543;50.712;6.070;2023-04-03T01:36:50;3.72;;;1.48;;
67747;SDS011;54543;50.712;6.070;2023-04-03T01:39:17;2.15;;;1.30;;
67747;SDS011;54543;50.712;6.070;2023-04-03T01:41:43;1.40;;;1.27;;
67747;SDS011;54543;50.712;6.070;2023-04-03T01:44:08;2.00;;;1.30;;
67747;SDS011;54543;50.712;6.070;2023-04-03T01:46:34;1.85;;;1.30;;
67747;SDS011;54543;50.712;6.070;2023-04-03T01:49:00;2.00;;;1.50;;
67747;SDS011;54543;50.712;6.070;2023-04-03T01:51:26;2.22;;;1.42;;
67747;SDS011;54543;50.712;6.070;2023-04-03T01:53:51;1.55;;;1.40;;
67747;SDS011;54543;50.712;6.070;2023-04-03T01:56:17;2.03;;;1.33;;
67747;SDS011;54543;50.712;6.070;2023-04-03T01:58:42;2.50;;;1.50;;
67747;SDS011;54543;50.712;6.070;2023-04-03T02:01:08;2.80;;;1.30;;
67747;SDS011;54543;50.712;6.070;2023-04-03T02:03:33;2.15;;;1.30;;
67747;SDS011;54543;50.712;6.070;2023-04-03T02:05:59;1.92;;;1.40;;
67747;SDS011;54543;50.712;6.070;2023-04-03T02:08:25;1.77;;;1.27;;
67747;SDS011;54543;50.712;6.070;2023-04-03T02:10:50;1.25;;;1.15;;
67747;SDS011;54543;50.712;6.070;2023-04-03T02:13:16;1.85;;;1.20;;
67747;SDS011;54543;50.712;6.070;2023-04-03T02:15:42;2.30;;;1.30;;
67747;SDS011;54543;50.712;6.070;2023-04-03T02:18:08;1.50;;;1.00;;
67747;SDS011;54543;50.712;6.070;2023-04-03T02:20:34;2.20;;;1.30;;
67747;SDS011;54543;50.712;6.070;2023-04-03T02:23:00;1.40;;;1.30;;
67747;SDS011;54543;50.712;6.070;2023-04-03T02:25:26;1.60;;;1.17;;
67747;SDS011;54543;50.712;6.070;2023-04-03T02:27:52;2.28;;;1.42;;
67747;SDS011;54543;50.712;6.070;2023-04-03T02:30:17;2.25;;;1.45;;
67747;SDS011;54543;50.712;6.070;2023-04-03T02:32:43;1.73;;;1.48;;
67747;SDS011;54543;50.712;6.070;2023-04-03T02:35:09;2.20;;;1.35;;
67747;SDS011;54543;50.712;6.070;2023-04-03T02:37:35;2.80;;;1.40;;
67747;SDS011;54543;50.712;6.070;2023-04-03T02:40:01;1.63;;;1.40;;
67747;SDS011;54543;50.712;6.070;2023-04-03T02:42:26;1.52;;;1.23;;
67747;SDS011;54543;50.712;6.070;2023-04-03T02:44:52;1.63;;;1.25;;
67747;SDS011;54543;50.712;6.070;2023-04-03T02:47:17;2.20;;;1.40;;
67747;SDS011;54543;50.712;6.070;2023-04-03T02:49:43;1.85;;;1.20;;
67747;SDS011;54543;50.712;6.070;2023-04-03T02:52:12;2.30;;;1.38;;
67747;SDS011;54543;50.712;6.070;2023-04-03T02:54:38;2.00;;;1.50;;
67747;SDS011;54543;50.712;6.070;2023-04-03T02:57:03;2.50;;;1.38;;
67747;SDS011;54543;50.712;6.070;2023-04-03T02:59:29;3.63;;;1.52;;
67747;SDS011;54543;50.712;6.070;2023-04-03T03:01:55;3.83;;;1.60;;
67747;SDS011;54543;50.712;6.070;2023-04-03T03:04:21;1.63;;;1.27;;
67747;SDS011;54543;50.712;6.070;2023-04-03T03:06:47;2.78;;;1.30;;
67747;SDS011;54543;50.712;6.070;2023-04-03T03:09:13;1.90;;;1.45;;
67747;SDS011;54543;50.712;6.070;2023-04-03T03:11:39;2.15;;;1.42;;
67747;SDS011;54543;50.712;6.070;2023-04-03T03:14:05;1.55;;;1.25;;
67747;SDS011;54543;50.712;6.070;2023-04-03T03:16:31;1.70;;;1.40;;
67747;SDS011;54543;50.712;6.070;2023-04-03T03:18:56;1.63;;;1.17;;
67747;SDS011;54543;50.712;6.070;2023-04-03T03:21:22;2.15;;;1.55;;
67747;SDS011;54543;50.712;6.070;2023-04-03T03:23:47;2.72;;;1.38;;
67747;SDS011;54543;50.712;6.070;2023-04-03T03:26:13;2.15;;;1.40;;
67747;SDS011;54543;50.712;6.070;2023-04-03T03:28:39;2.00;;;1.55;;
67747;SDS011;54543;50.712;6.070;2023-04-03T03:31:06;2.25;;;1.45;;
67747;SDS011;54543;50.712;6.070;2023-04-03T03:33:33;1.40;;;1.10;;
67747;SDS011;54543;50.712;6.070;2023-04-03T03:35:59;2.08;;;1.58;;
67747;SDS011;54543;50.712;6.070;2023-04-03T03:38:25;3.30;;;1.90;;
67747;SDS011;54543;50.712;6.070;2023-04-03T03:40:51;2.50;;;1.52;;
67747;SDS011;54543;50.712;6.070;2023-04-03T03:43:17;3.22;;;1.58;;
67747;SDS011;54543;50.712;6.070;2023-04-03T03:45:43;4.70;;;1.58;;
67747;SDS011;54543;50.712;6.070;2023-04-03T03:48:10;1.92;;;1.40;;
67747;SDS011;54543;50.712;6.070;2023-04-03T03:50:36;2.22;;;1.52;;
67747;SDS011;54543;50.712;6.070;2023-04-03T03:53:02;2.42;;;1.45;;
67747;SDS011;54543;50.712;6.070;2023-04-03T03:55:27;2.25;;;1.60;;
67747;SDS011;54543;50.712;6.070;2023-04-03T03:57:53;2.40;;;1.85;;
67747;SDS011;54543;50.712;6.070;2023-04-03T04:00:19;3.92;;;1.75;;
67747;SDS011;54543;50.712;6.070;2023-04-03T04:02:44;2.95;;;1.60;;
67747;SDS011;54543;50.712;6.070;2023-04-03T04:05:11;3.97;;;1.80;;
67747;SDS011;54543;50.712;6.070;2023-04-03T04:07:36;3.03;;;1.98;;
67747;SDS011;54543;50.712;6.070;2023-04-03T04:10:02;2.72;;;1.65;;
67747;SDS011;54543;50.712;6.070;2023-04-03T04:12:28;2.63;;;1.52;;
67747;SDS011;54543;50.712;6.070;2023-04-03T04:14:53;2.88;;;1.85;;
67747;SDS011;54543;50.712;6.070;2023-04-03T04:17:19;4.50;;;1.98;;
67747;SDS011;54543;50.712;6.070;2023-04-03T04:19:44;3.78;;;2.00;;
67747;SDS011;54543;50.712;6.070;2023-04-03T04:22:10;2.30;;;1.77;;
67747;SDS011;54543;50.712;6.070;2023-04-03T04:24:35;2.83;;;1.70;;
67747;SDS011;54543;50.712;6.070;2023-04-03T04:27:01;2.97;;;1.98;;
67747;SDS011;54543;50.712;6.070;2023-04-03T04:29:27;2.42;;;1.52;;
67747;SDS011;54543;50.712;6.070;2023-04-03T04:31:52;3.08;;;2.05;;
67747;SDS011;54543;50.712;6.070;2023-04-03T04:34:17;3.38;;;2.00;;
67747;SDS011;54543;50.712;6.070;2023-04-03T04:36:43;4.25;;;2.15;;
67747;SDS011;54543;50.712;6.070;2023-04-03T04:39:09;4.32;;;2.53;;
67747;SDS011;54543;50.712;6.070;2023-04-03T04:41:34;3.03;;;1.90;;
67747;SDS011;54543;50.712;6.070;2023-04-03T04:44:00;2.95;;;1.98;;
67747;SDS011;54543;50.712;6.070;2023-04-03T04:46:26;4.30;;;2.13;;
67747;SDS011;54543;50.712;6.070;2023-04-03T04:48:51;3.53;;;1.90;;
67747;SDS011;54543;50.712;6.070;2023-04-03T04:51:17;3.70;;;2.03;;
67747;SDS011;54543;50.712;6.070;2023-04-03T04:53:43;4.15;;;1.98;;
67747;SDS011;54543;50.712;6.070;2023-04-03T04:56:08;2.85;;;1.95;;
67747;SDS011;54543;50.712;6.070;2023-04-03T04:58:34;3.58;;;2.38;;
67747;SDS011;54543;50.712;6.070;2023-04-03T05:03:30;3.25;;;1.90;;
67747;SDS011;54543;50.712;6.070;2023-04-03T05:05:55;4.30;;;2.28;;
67747;SDS011;54543;50.712;6.070;2023-04-03T05:08:21;4.63;;;2.55;;
67747;SDS011;54543;50.712;6.070;2023-04-03T05:10:47;5.35;;;2.28;;
67747;SDS011;54543;50.712;6.070;2023-04-03T05:13:13;4.70;;;2.55;;
67747;SDS011;54543;50.712;6.070;2023-04-03T05:15:39;4.07;;;2.17;;
67747;SDS011;54543;50.712;6.070;2023-04-03T05:18:05;3.70;;;2.50;;
67747;SDS011;54543;50.712;6.070;2023-04-03T05:20:31;4.80;;;2.60;;
67747;SDS011;54543;50.712;6.070;2023-04-03T05:22:57;5.75;;;2.45;;
67747;SDS011;54543;50.712;6.070;2023-04-03T05:25:23;4.72;;;2.95;;
67747;SDS011;54543;50.712;6.070;2023-04-03T05:27:48;4.18;;;2.70;;
67747;SDS011;54543;50.712;6.070;2023-04-03T05:30:15;6.00;;;2.38;;
67747;SDS011;54543;50.712;6.070;2023-04-03T05:32:41;4.60;;;2.90;;
67747;SDS011;54543;50.712;6.070;2023-04-03T05:35:07;5.18;;;2.67;;
67747;SDS011;54543;50.712;6.070;2023-04-03T05:37:33;4.40;;;2.70;;
67747;SDS011;54543;50.712;6.070;2023-04-03T05:39:59;4.55;;;2.60;;
67747;SDS011;54543;50.712;6.070;2023-04-03T05:42:25;4.35;;;2.67;;
67747;SDS011;54543;50.712;6.070;2023-04-03T05:44:51;3.88;;;2.65;;
67747;SDS011;54543;50.712;6.070;2023-04-03T05:47:17;3.95;;;2.38;;
67747;SDS011;54543;50.712;6.070;2023-04-03T05:49:43;4.65;;;2.63;;
67747;SDS011;54543;50.712;6.070;2023-04-03T05:54:48;4.38;;;2.75;;
67747;SDS011;54543;50.712;6.070;2023-04-03T05:57:14;4.93;;;3.08;;
67747;SDS011;54543;50.712;6.070;2023-04-03T05:59:41;7.22;;;2.67;;
67747;SDS011;54543;50.712;6.070;2023-04-03T06:02:10;4.22;;;2.70;;
67747;SDS011;54543;50.712;6.070;2023-04-03T06:04:36;5.47;;;3.00;;
67747;SDS011;54543;50.712;6.070;2023-04-03T06:07:02;4.72;;;2.78;;
67747;SDS011;54543;50.712;6.070;2023-04-03T06:09:28;4.03;;;2.58;;
67747;SDS011;54543;50.712;6.070;2023-04-03T06:11:54;4.90;;;3.08;;
67747;SDS011;54543;50.712;6.070;2023-04-03T06:14:19;5.28;;;2.63;;
67747;SDS011;54543;50.712;6.070;2023-04-03T06:16:45;5.90;;;3.50;;
67747;SDS011;54543;50.712;6.070;2023-04-03T06:19:11;4.78;;;3.00;;
67747;SDS011;54543;50.712;6.070;2023-04-03T06:21:36;8.15;;;3.65;;
67747;SDS011;54543;50.712;6.070;2023-04-03T06:24:03;5.95;;;2.70;;
67747;SDS011;54543;50.712;6.070;2023-04-03T06:26:29;6.30;;;3.13;;
67747;SDS011;54543;50.712;6.070;2023-04-03T06:28:55;5.28;;;3.00;;
67747;SDS011;54543;50.712;6.070;2023-04-03T06:31:21;7.47;;;3.42;;
67747;SDS011;54543;50.712;6.070;2023-04-03T06:33:47;7.03;;;3.55;;
67747;SDS011;54543;50.712;6.070;2023-04-03T06:36:12;6.63;;;3.53;;
67747;SDS011;54543;50.712;6.070;2023-04-03T06:38:38;5.68;;;3.75;;
67747;SDS011;54543;50.712;6.070;2023-04-03T06:41:04;5.22;;;3.72;;
67747;SDS011;54543;50.712;6.070;2023-04-03T06:43:30;5.32;;;3.30;;
67747;SDS011;54543;50.712;6.070;2023-04-03T06:45:58;4.95;;;3.22;;
67747;SDS011;54543;50.712;6.070;2023-04-03T06:48:24;5.50;;;3.35;;
67747;SDS011;54543;50.712;6.070;2023-04-03T06:50:49;5.22;;;3.35;;
67747;SDS011;54543;50.712;6.070;2023-04-03T06:53:15;4.78;;;3.33;;
67747;SDS011;54543;50.712;6.070;2023-04-03T06:55:40;5.70;;;3.40;;
67747;SDS011;54543;50.712;6.070;2023-04-03T06:58:06;4.88;;;3.05;;
67747;SDS011;54543;50.712;6.070;2023-04-03T07:00:32;6.57;;;3.35;;
67747;SDS011;54543;50.712;6.070;2023-04-03T07:02:58;6.13;;;3.80;;
67747;SDS011;54543;50.712;6.070;2023-04-03T07:05:24;6.45;;;3.53;;
67747;SDS011;54543;50.712;6.070;2023-04-03T07:07:49;5.32;;;3.05;;
67747;SDS011;54543;50.712;6.070;2023-04-03T07:10:16;7.35;;;3.47;;
67747;SDS011;54543;50.712;6.070;2023-04-03T07:12:42;8.75;;;4.50;;
67747;SDS011;54543;50.712;6.070;2023-04-03T07:15:08;5.78;;;3.63;;
67747;SDS011;54543;50.712;6.070;2023-04-03T07:17:34;7.75;;;3.95;;
67747;SDS011;54543;50.712;6.070;2023-04-03T07:20:01;5.50;;;3.60;;
67747;SDS011;54543;50.712;6.070;2023-04-03T07:22:27;5.88;;;3.72;;
67747;SDS011;54543;50.712;6.070;2023-04-03T07:24:52;4.13;;;2.88;;
67747;SDS011;54543;50.712;6.070;2023-04-03T07:27:18;7.32;;;3.60;;
67747;SDS011;54543;50.712;6.070;2023-04-03T07:29:43;5.13;;;3.17;;
67747;SDS011;54543;50.712;6.070;2023-04-03T07:32:09;6.15;;;3.28;;
67747;SDS011;54543;50.712;6.070;2023-04-03T07:34:35;7.18;;;4.18;;
67747;SDS011;54543;50.712;6.070;2023-04-03T07:37:01;9.52;;;4.60;;
67747;SDS011;54543;50.712;6.070;2023-04-03T07:39:28;5.05;;;3.55;;
67747;SDS011;54543;50.712;6.070;2023-04-03T07:41:54;5.03;;;3.42;;
67747;SDS011;54543;50.712;6.070;2023-04-03T07:44:23;4.07;;;3.33;;
67747;SDS011;54543;50.712;6.070;2023-04-03T07:46:50;4.72;;;3.05;;
67747;SDS011;54543;50.712;6.070;2023-04-03T07:49:16;4.90;;;3.20;;
67747;SDS011;54543;50.712;6.070;2023-04-03T07:51:43;5.55;;;3.10;;
67747;SDS011;54543;50.712;6.070;2023-04-03T07:54:09;4.95;;;2.53;;
67747;SDS011;54543;50.712;6.070;2023-04-03T07:56:35;3.08;;;2.05;;
67747;SDS011;54543;50.712;6.070;2023-04-03T07:59:01;3.30;;;1.98;;
67747;SDS011;54543;50.712;6.070;2023-04-03T08:01:26;4.28;;;2.17;;
67747;SDS011;54543;50.712;6.070;2023-04-03T08:03:52;4.88;;;2.55;;
67747;SDS011;54543;50.712;6.070;2023-04-03T08:06:19;4.10;;;1.95;;
67747;SDS011;54543;50.712;6.070;2023-04-03T08:08:44;3.90;;;2.17;;
67747;SDS011;54543;50.712;6.070;2023-04-03T08:11:11;3.35;;;2.00;;
67747;SDS011;54543;50.712;6.070;2023-04-03T08:13:37;3.50;;;2.13;;
67747;SDS011;54543;50.712;6.070;2023-04-03T08:16:10;4.15;;;2.10;;
67747;SDS011;54543;50.712;6.070;2023-04-03T08:18:37;4.10;;;2.10;;
67747;SDS011;54543;50.712;6.070;2023-04-03T08:21:08;3.85;;;2.00;;
67747;SDS011;54543;50.712;6.070;2023-04-03T08:23:35;3.28;;;1.95;;
67747;SDS011;54543;50.712;6.070;2023-04-03T08:26:05;4.85;;;2.08;;
67747;SDS011;54543;50.712;6.070;2023-04-03T08:28:32;3.05;;;2.10;;
67747;SDS011;54543;50.712;6.070;2023-04-03T08:31:01;3.70;;;1.77;;
67747;SDS011;54543;50.712;6.070;2023-04-03T08:33:28;5.05;;;1.92;;
67747;SDS011;54543;50.712;6.070;2023-04-03T08:35:53;3.45;;;1.90;;
67747;SDS011;54543;50.712;6.070;2023-04-03T08:38:19;4.65;;;2.13;;
67747;SDS011;54543;50.712;6.070;2023-04-03T08:40:44;4.75;;;2.30;;
67747;SDS011;54543;50.712;6.070;2023-04-03T08:43:20;3.30;;;2.03;;
67747;SDS011;54543;50.712;6.070;2023-04-03T08:46:20;4.57;;;1.98;;
67747;SDS011;54543;50.712;6.070;2023-04-03T08:48:51;3.70;;;2.10;;
67747;SDS011;54543;50.712;6.070;2023-04-03T08:51:18;6.40;;;2.63;;
67747;SDS011;54543;50.712;6.070;2023-04-03T08:53:53;5.07;;;1.95;;
67747;SDS011;54543;50.712;6.070;2023-04-03T08:56:22;4.25;;;2.38;;
67747;SDS011;54543;50.712;6.070;2023-04-03T08:58:55;5.75;;;3.70;;
67747;SDS011;54543;50.712;6.070;2023-04-03T09:01:24;9.15;;;5.68;;
67747;SDS011;54543;50.712;6.070;2023-04-03T09:03:54;6.50;;;4.03;;
67747;SDS011;54543;50.712;6.070;2023-04-03T09:09:09;6.85;;;3.58;;
67747;SDS011;54543;50.712;6.070;2023-04-03T09:19:56;10.98;;;6.82;;
67747;SDS011;54543;50.712;6.070;2023-04-03T09:22:33;7.40;;;4.97;;
67747;SDS011;54543;50.712;6.070;2023-04-03T09:25:17;9.98;;;5.53;;
67747;SDS011;54543;50.712;6.070;2023-04-03T09:27:47;8.13;;;4.78;;
67747;SDS011;54543;50.712;6.070;2023-04-03T09:30:16;7.65;;;4.47;;
67747;SDS011;54543;50.712;6.070;2023-04-03T09:32:53;9.73;;;4.65;;
67747;SDS011;54543;50.712;6.070;2023-04-03T09:35:24;6.75;;;4.43;;
67747;SDS011;54543;50.712;6.070;2023-04-03T09:37:58;6.55;;;4.03;;
67747;SDS011;54543;50.712;6.070;2023-04-03T09:42:51;4.90;;;2.97;;
67747;SDS011;54543;50.712;6.070;2023-04-03T09:45:22;6.13;;;3.83;;
67747;SDS011;54543;50.712;6.070;2023-04-03T09:48:25;8.13;;;4.47;;
67747;SDS011;54543;50.712;6.070;2023-04-03T09:58:43;6.43;;;3.45;;
67747;SDS011;54543;50.712;6.070;2023-04-03T10:01:21;4.82;;;2.90;;
67747;SDS011;54543;50.712;6.070;2023-04-03T10:06:39;6.45;;;3.42;;
67747;SDS011;54543;50.712;6.070;2023-04-03T10:09:24;7.47;;;3.78;;
67747;SDS011;54543;50.712;6.070;2023-04-03T10:17:24;5.20;;;3.05;;
67747;SDS011;54543;50.712;6.070;2023-04-03T10:29:05;3.63;;;2.50;;
67747;SDS011;54543;50.712;6.070;2023-04-03T10:43:25;3.42;;;2.00;;
67747;SDS011;54543;50.712;6.070;2023-04-03T10:46:23;5.75;;;3.05;;
67747;SDS011;54543;50.712;6.070;2023-04-03T10:51:48;3.63;;;2.33;;
67747;SDS011;54543;50.712;6.070;2023-04-03T10:57:04;3.90;;;2.03;;
67747;SDS011;54543;50.712;6.070;2023-04-03T10:59:35;3.50;;;2.10;;
67747;SDS011;54543;50.712;6.070;2023-04-03T11:02:24;3.95;;;2.13;;
67747;SDS011;54543;50.712;6.070;2023-04-03T11:05:26;6.00;;;2.15;;
67747;SDS011;54543;50.712;6.070;2023-04-03T11:08:11;4.10;;;1.95;;
67747;SDS011;54543;50.712;6.070;2023-04-03T11:11:04;2.75;;;1.52;;
67747;SDS011;54543;50.712;6.070;2023-04-03T11:16:21;5.50;;;2.50;;
67747;SDS011;54543;50.712;6.070;2023-04-03T11:21:29;5.43;;;2.50;;
67747;SDS011;54543;50.712;6.070;2023-04-03T11:26:29;3.15;;;2.05;;
67747;SDS011;54543;50.712;6.070;2023-04-03T11:29:05;3.80;;;1.77;;
67747;SDS011;54543;50.712;6.070;2023-04-03T11:37:25;6.13;;;3.60;;
67747;SDS011;54543;50.712;6.070;2023-04-03T11:39:56;5.53;;;2.72;;
67747;SDS011;54543;50.712;6.070;2023-04-03T11:42:32;4.85;;;2.83;;
67747;SDS011;54543;50.712;6.070;2023-04-03T11:47:53;3.28;;;1.50;;
67747;SDS011;54543;50.712;6.070;2023-04-03T12:37:08;3.42;;;1.80;;
67747;SDS011;54543;50.712;6.070;2023-04-03T12:45:40;5.18;;;2.22;;
67747;SDS011;54543;50.712;6.070;2023-04-03T12:48:16;4.35;;;1.95;;
67747;SDS011;54543;50.712;6.070;2023-04-03T12:50:46;2.35;;;1.30;;
67747;SDS011;54543;50.712;6.070;2023-04-03T12:53:21;2.95;;;1.90;;
67747;SDS011;54543;50.712;6.070;2023-04-03T12:55:57;3.50;;;2.00;;
67747;SDS011;54543;50.712;6.070;2023-04-03T12:58:42;3.95;;;1.67;;
67747;SDS011;54543;50.712;6.070;2023-04-03T13:01:12;3.92;;;1.70;;
67747;SDS011;54543;50.712;6.070;2023-04-03T13:03:57;3.55;;;1.58;;
67747;SDS011;54543;50.712;6.070;2023-04-03T13:06:37;3.65;;;1.98;;
67747;SDS011;54543;50.712;6.070;2023-04-03T13:09:05;4.05;;;2.17;;
67747;SDS011;54543;50.712;6.070;2023-04-03T13:11:42;3.60;;;1.75;;
67747;SDS011;54543;50.712;6.070;2023-04-03T13:14:20;5.65;;;3.10;;
67747;SDS011;54543;50.712;6.070;2023-04-03T13:16:57;3.83;;;2.00;;
67747;SDS011;54543;50.712;6.070;2023-04-03T13:19:35;3.90;;;1.92;;
67747;SDS011;54543;50.712;6.070;2023-04-03T13:22:05;4.57;;;2.20;;
67747;SDS011;54543;50.712;6.070;2023-04-03T13:24:34;4.28;;;2.20;;
67747;SDS011;54543;50.712;6.070;2023-04-03T13:27:03;5.15;;;2.95;;
67747;SDS011;54543;50.712;6.070;2023-04-03T13:29:34;4.80;;;2.95;;
67747;SDS011;54543;50.712;6.070;2023-04-03T13:32:01;4.95;;;3.00;;
67747;SDS011;54543;50.712;6.070;2023-04-03T13:34:40;7.63;;;3.53;;
67747;SDS011;54543;50.712;6.070;2023-04-03T13:37:11;8.98;;;3.90;;
67747;SDS011;54543;50.712;6.070;2023-04-03T13:39:56;4.95;;;3.10;;
67747;SDS011;54543;50.712;6.070;2023-04-03T13:42:42;5.28;;;2.85;;
67747;SDS011;54543;50.712;6.070;2023-04-03T13:45:09;3.83;;;2.38;;
67747;SDS011;54543;50.712;6.070;2023-04-03T13:47:41;3.03;;;2.00;;
67747;SDS011;54543;50.712;6.070;2023-04-03T13:50:18;5.32;;;2.22;;
67747;SDS011;54543;50.712;6.070;2023-04-03T13:52:52;4.63;;;1.77;;
67747;SDS011;54543;50.712;6.070;2023-04-03T14:03:07;3.55;;;1.67;;
67747;SDS011;54543;50.712;6.070;2023-04-03T14:08:03;3.50;;;1.70;;
67747;SDS011;54543;50.712;6.070;2023-04-03T14:10:29;3.78;;;1.50;;
67747;SDS011;54543;50.712;6.070;2023-04-03T14:12:55;3.65;;;2.33;;
67747;SDS011;54543;50.712;6.070;2023-04-03T14:15:25;1.67;;;1.10;;
67747;SDS011;54543;50.712;6.070;2023-04-03T14:17:53;4.90;;;1.80;;
67747;SDS011;54543;50.712;6.070;2023-04-03T14:20:22;4.00;;;1.80;;
67747;SDS011;54543;50.712;6.070;2023-04-03T14:22:51;2.92;;;1.70;;
67747;SDS011;54543;50.712;6.070;2023-04-03T14:25:17;3.42;;;1.35;;
67747;SDS011;54543;50.712;6.070;2023-04-03T14:27:45;2.33;;;1.35;;
67747;SDS011;54543;50.712;6.070;2023-04-03T14:30:14;3.10;;;1.50;;
67747;SDS011;54543;50.712;6.070;2023-04-03T14:32:47;2.58;;;1.67;;
67747;SDS011;54543;50.712;6.070;2023-04-03T14:35:14;3.30;;;1.80;;
67747;SDS011;54543;50.712;6.070;2023-04-03T14:37:40;3.53;;;1.90;;
67747;SDS011;54543;50.712;6.070;2023-04-03T14:40:07;3.25;;;1.63;;
67747;SDS011;54543;50.712;6.070;2023-04-03T14:42:35;2.80;;;1.42;;
67747;SDS011;54543;50.712;6.070;2023-04-03T14:45:03;1.95;;;1.20;;
67747;SDS011;54543;50.712;6.070;2023-04-03T14:47:31;2.72;;;1.63;;
67747;SDS011;54543;50.712;6.070;2023-04-03T14:49:58;5.15;;;2.70;;
67747;SDS011;54543;50.712;6.070;2023-04-03T14:52:29;2.97;;;1.63;;
67747;SDS011;54543;50.712;6.070;2023-04-03T14:54:57;3.33;;;1.95;;
67747;SDS011;54543;50.712;6.070;2023-04-03T14:57:24;2.22;;;1.38;;
67747;SDS011;54543;50.712;6.070;2023-04-03T14:59:51;2.70;;;1.65;;
67747;SDS011;54543;50.712;6.070;2023-04-03T15:04:55;2.95;;;1.85;;
67747;SDS011;54543;50.712;6.070;2023-04-03T15:07:21;2.55;;;1.25;;
67747;SDS011;54543;50.712;6.070;2023-04-03T15:09:49;2.67;;;1.50;;
67747;SDS011;54543;50.712;6.070;2023-04-03T15:12:15;2.97;;;1.48;;
67747;SDS011;54543;50.712;6.070;2023-04-03T15:14:40;2.97;;;1.40;;
67747;SDS011;54543;50.712;6.070;2023-04-03T15:17:06;2.65;;;1.50;;
67747;SDS011;54543;50.712;6.070;2023-04-03T15:19:40;2.90;;;1.42;;
67747;SDS011;54543;50.712;6.070;2023-04-03T15:22:06;5.13;;;2.13;;
67747;SDS011;54543;50.712;6.070;2023-04-03T15:24:31;4.15;;;2.20;;
67747;SDS011;54543;50.712;6.070;2023-04-03T15:26:57;3.42;;;1.90;;
67747;SDS011;54543;50.712;6.070;2023-04-03T15:29:23;4.75;;;3.45;;
67747;SDS011;54543;50.712;6.070;2023-04-03T15:31:49;4.97;;;2.80;;
67747;SDS011;54543;50.712;6.070;2023-04-03T15:34:17;4.78;;;3.20;;
67747;SDS011;54543;50.712;6.070;2023-04-03T15:36:43;5.47;;;2.58;;
67747;SDS011;54543;50.712;6.070;2023-04-03T15:39:08;3.90;;;2.10;;
67747;SDS011;54543;50.712;6.070;2023-04-03T15:41:34;3.00;;;1.85;;
67747;SDS011;54543;50.712;6.070;2023-04-03T15:43:59;4.53;;;2.20;;
67747;SDS011;54543;50.712;6.070;2023-04-03T15:46:25;5.57;;;3.17;;
67747;SDS011;54543;50.712;6.070;2023-04-03T15:48:50;3.38;;;2.10;;
67747;SDS011;54543;50.712;6.070;2023-04-03T15:51:16;4.00;;;2.30;;
67747;SDS011;54543;50.712;6.070;2023-04-03T15:53:42;2.80;;;1.70;;
67747;SDS011;54543;50.712;6.070;2023-04-03T15:56:08;2.92;;;1.63;;
67747;SDS011;54543;50.712;6.070;2023-04-03T15:58:34;4.40;;;3.70;;
67747;SDS011;54543;50.712;6.070;2023-04-03T16:01:00;6.03;;;4.05;;
67747;SDS011;54543;50.712;6.070;2023-04-03T16:03:27;4.53;;;3.03;;
67747;SDS011;54543;50.712;6.070;2023-04-03T16:05:53;5.35;;;3.58;;
67747;SDS011;54543;50.712;6.070;2023-04-03T16:08:19;6.05;;;4.50;;
67747;SDS011;54543;50.712;6.070;2023-04-03T16:10:44;4.90;;;3.15;;
67747;SDS011;54543;50.712;6.070;2023-04-03T16:13:11;3.00;;;2.00;;
67747;SDS011;54543;50.712;6.070;2023-04-03T16:15:36;3.33;;;2.00;;
67747;SDS011;54543;50.712;6.070;2023-04-03T16:18:03;6.65;;;4.72;;
67747;SDS011;54543;50.712;6.070;2023-04-03T16:20:28;5.15;;;2.42;;
67747;SDS011;54543;50.712;6.070;2023-04-03T16:22:56;4.50;;;2.92;;
67747;SDS011;54543;50.712;6.070;2023-04-03T16:25:23;14.77;;;11.95;;
67747;SDS011;54543;50.712;6.070;2023-04-03T16:27:48;10.20;;;7.72;;
67747;SDS011;54543;50.712;6.070;2023-04-03T16:30:14;6.78;;;4.70;;
67747;SDS011;54543;50.712;6.070;2023-04-03T16:32:40;5.70;;;3.63;;
67747;SDS011;54543;50.712;6.070;2023-04-03T16:35:06;5.18;;;3.45;;
67747;SDS011;54543;50.712;6.070;2023-04-03T16:37:32;5.55;;;3.53;;
67747;SDS011;54543;50.712;6.070;2023-04-03T16:39:58;5.72;;;3.75;;
67747;SDS011;54543;50.712;6.070;2023-04-03T16:42:24;3.10;;;1.70;;
67747;SDS011;54543;50.712;6.070;2023-04-03T16:44:50;4.50;;;3.03;;
67747;SDS011;54543;50.712;6.070;2023-04-03T16:47:16;5.22;;;1.90;;
67747;SDS011;54543;50.712;6.070;2023-04-03T16:49:44;2.20;;;1.52;;
67747;SDS011;54543;50.712;6.070;2023-04-03T16:52:11;3.05;;;1.70;;
67747;SDS011;54543;50.712;6.070;2023-04-03T16:54:36;9.00;;;4.72;;
67747;SDS011;54543;50.712;6.070;2023-04-03T16:57:02;5.88;;;3.40;;
67747;SDS011;54543;50.712;6.070;2023-04-03T16:59:27;4.63;;;2.40;;
67747;SDS011;54543;50.712;6.070;2023-04-03T17:01:53;3.80;;;2.25;;
67747;SDS011;54543;50.712;6.070;2023-04-03T17:04:19;7.43;;;3.42;;
67747;SDS011;54543;50.712;6.070;2023-04-03T17:06:44;5.05;;;2.35;;
67747;SDS011;54543;50.712;6.070;2023-04-03T17:09:10;2.92;;;1.80;;
67747;SDS011;54543;50.712;6.070;2023-04-03T17:11:37;2.72;;;1.70;;
67747;SDS011;54543;50.712;6.070;2023-04-03T17:14:03;2.17;;;1.17;;
67747;SDS011;54543;50.712;6.070;2023-04-03T17:16:29;3.22;;;1.13;;
67747;SDS011;54543;50.712;6.070;2023-04-03T17:18:57;2.20;;;1.02;;
67747;SDS011;54543;50.712;6.070;2023-04-03T17:21:22;1.77;;;1.08;;